createdAt,value
2023-01-10T07:20:42.692Z,4.30
2023-01-10T07:23:09.588Z,4.30
2023-01-10T07:25:36.337Z,4.30
2023-01-10T07:28:04.966Z,4.30
2023-01-10T07:30:31.798Z,4.30
2023-01-10T07:32:58.649Z,4.40
2023-01-10T07:35:25.799Z,4.40
2023-01-10T07:37:52.724Z,4.40
2023-01-10T07:40:19.675Z,4.50
2023-01-10T07:42:46.467Z,4.50
2023-01-10T07:45:13.302Z,4.50
2023-01-10T07:47:40.098Z,4.60
2023-01-10T07:50:07.618Z,4.60
2023-01-10T07:52:34.368Z,4.60
2023-01-10T07:55:01.168Z,4.60
2023-01-10T07:57:27.979Z,4.60
2023-01-10T07:59:54.858Z,4.60
2023-01-10T08:02:21.916Z,4.60
2023-01-10T08:04:48.811Z,4.50
2023-01-10T08:07:15.635Z,4.50
2023-01-10T08:09:42.447Z,4.50
2023-01-10T08:12:09.211Z,4.40
2023-01-10T08:14:36.166Z,4.40
2023-01-10T08:17:02.957Z,4.40
2023-01-10T08:19:29.707Z,4.30
2023-01-10T08:21:56.558Z,4.30
2023-01-10T08:24:23.334Z,4.30
2023-01-10T08:26:50.150Z,4.30
2023-01-10T08:29:16.909Z,4.30
2023-01-10T08:31:43.704Z,4.30
2023-01-10T08:34:12.515Z,4.30
2023-01-10T08:36:39.295Z,4.20
2023-01-10T08:39:06.061Z,4.20
2023-01-10T08:41:32.890Z,4.20
2023-01-10T08:43:59.720Z,4.20
2023-01-10T08:46:26.708Z,4.20
2023-01-10T08:48:53.525Z,4.20
2023-01-10T08:51:20.317Z,4.20
2023-01-10T08:53:47.096Z,4.30
2023-01-10T08:56:13.868Z,4.20
2023-01-10T08:58:40.733Z,4.30
2023-01-10T09:01:08.625Z,4.30
2023-01-10T09:03:35.417Z,4.40
2023-01-10T09:06:02.420Z,4.50
2023-01-10T09:08:29.378Z,4.50
2023-01-10T09:10:59.861Z,4.60
2023-01-10T09:13:27.446Z,4.70
2023-01-10T09:15:54.262Z,4.80
2023-01-10T09:18:21.498Z,4.90
2023-01-10T09:20:49.466Z,4.90
2023-01-10T09:23:20.391Z,5.00
2023-01-10T09:25:48.394Z,5.00
2023-01-10T09:28:15.719Z,5.10
2023-01-10T09:30:43.064Z,5.10
2023-01-10T09:33:10.015Z,5.20
2023-01-10T09:35:38.370Z,5.20
2023-01-10T09:38:06.902Z,5.30
2023-01-10T09:40:41.091Z,5.30
2023-01-10T09:43:13.842Z,5.40
2023-01-10T09:46:00.934Z,5.40
2023-01-10T09:48:50.693Z,5.50
2023-01-10T09:51:35.484Z,5.50
2023-01-10T09:54:12.488Z,5.50
2023-01-10T09:56:40.850Z,5.50
2023-01-10T09:59:19.711Z,5.50
2023-01-10T10:01:48.805Z,5.60
2023-01-10T10:04:32.273Z,5.60
2023-01-10T10:06:59.381Z,5.60
2023-01-10T10:09:29.807Z,5.60
2023-01-10T10:12:05.802Z,5.60
2023-01-10T10:14:53.793Z,5.70
2023-01-10T10:17:33.008Z,5.70
2023-01-10T10:20:31.458Z,5.70
2023-01-10T10:23:35.948Z,5.70
2023-01-10T10:26:27.234Z,5.70
2023-01-10T10:29:25.424Z,5.70
2023-01-10T10:32:18.069Z,5.80
2023-01-10T10:35:03.651Z,5.80
2023-01-10T10:37:35.879Z,5.90
2023-01-10T10:40:06.482Z,5.90
2023-01-10T10:42:41.079Z,6.00
2023-01-10T10:45:19.230Z,6.00
2023-01-10T10:47:51.013Z,6.00
2023-01-10T10:50:25.609Z,6.00
2023-01-10T10:52:52.365Z,6.00
2023-01-10T10:55:23.414Z,6.10
2023-01-10T10:57:59.759Z,6.10
2023-01-10T11:00:27.726Z,6.10
2023-01-10T11:03:05.913Z,6.10
2023-01-10T11:05:39.151Z,6.10
2023-01-10T11:08:13.925Z,6.10
2023-01-10T11:10:47.544Z,6.10
2023-01-10T11:13:34.536Z,6.20
2023-01-10T11:16:04.405Z,6.20
2023-01-10T11:18:32.203Z,6.20
2023-01-10T11:21:04.956Z,6.20
2023-01-10T11:23:41.060Z,6.30
2023-01-10T11:26:40.542Z,6.30
2023-01-10T11:29:28.114Z,6.30
2023-01-10T11:31:56.676Z,6.30
2023-01-10T11:34:25.541Z,6.30
2023-01-10T11:37:17.338Z,6.30
2023-01-10T11:39:44.262Z,6.20
2023-01-10T11:42:31.550Z,6.30
2023-01-10T11:45:17.238Z,6.20
2023-01-10T11:47:56.507Z,6.20
2023-01-10T11:50:33.192Z,6.30
2023-01-10T11:53:00.203Z,6.30
2023-01-10T11:55:29.377Z,6.30
2023-01-10T11:58:11.190Z,6.30
2023-01-10T12:00:44.701Z,6.30
2023-01-10T12:03:37.409Z,6.30
2023-01-10T12:06:15.889Z,6.30
2023-01-10T12:08:44.235Z,6.30
2023-01-10T12:11:17.307Z,6.30
2023-01-10T12:13:47.159Z,6.40
2023-01-10T12:16:23.224Z,6.40
2023-01-10T12:18:52.238Z,6.40
2023-01-10T12:21:29.441Z,6.50
2023-01-10T12:23:59.322Z,6.50
2023-01-10T12:26:29.649Z,6.60
2023-01-10T12:28:58.831Z,6.60
2023-01-10T12:31:25.875Z,6.60
2023-01-10T12:33:58.820Z,6.60
2023-01-10T12:36:42.542Z,6.70
2023-01-10T12:39:19.812Z,6.70
2023-01-10T12:42:27.304Z,6.70
2023-01-10T12:45:21.106Z,6.70
2023-01-10T12:48:00.413Z,6.70
2023-01-10T12:50:32.545Z,6.80
2023-01-10T12:53:23.773Z,6.80
2023-01-10T12:55:53.047Z,6.80
2023-01-10T12:58:28.427Z,6.80
2023-01-10T13:00:59.416Z,6.80
2023-01-10T13:03:33.298Z,6.80
2023-01-10T13:06:00.914Z,6.80
2023-01-10T13:08:31.792Z,6.80
2023-01-10T13:11:00.078Z,6.80
2023-01-10T13:13:36.423Z,6.70
2023-01-10T13:16:16.730Z,6.70
2023-01-10T13:19:04.228Z,6.70
2023-01-10T13:21:33.184Z,6.80
2023-01-10T13:24:18.066Z,6.80
2023-01-10T13:26:59.609Z,6.80
2023-01-10T13:29:29.874Z,6.80
2023-01-10T13:32:02.006Z,6.80
2023-01-10T13:34:35.945Z,6.80
2023-01-10T13:37:14.138Z,6.80
2023-01-10T13:39:46.046Z,6.80
2023-01-10T13:42:53.941Z,6.80
2023-01-10T13:45:29.392Z,6.80
2023-01-10T13:47:56.922Z,6.80
2023-01-10T13:50:23.725Z,6.80
2023-01-10T13:52:52.121Z,6.80
2023-01-10T13:55:28.889Z,6.80
2023-01-10T13:58:00.066Z,6.80
2023-01-10T14:00:51.357Z,6.80
2023-01-10T14:03:42.836Z,6.80
2023-01-10T14:06:31.097Z,6.80
2023-01-10T14:08:59.306Z,6.80
2023-01-10T14:11:33.465Z,6.80
2023-01-10T14:14:02.143Z,6.80
2023-01-10T14:16:39.428Z,6.80
2023-01-10T14:19:23.000Z,6.80
2023-01-10T14:21:53.350Z,6.80
2023-01-10T14:24:40.406Z,6.80
2023-01-10T14:27:12.429Z,6.80
2023-01-10T14:29:39.446Z,6.90
2023-01-10T14:32:15.209Z,6.80
2023-01-10T14:34:45.159Z,6.80
2023-01-10T14:37:23.429Z,6.80
2023-01-10T14:39:52.976Z,6.80
2023-01-10T14:42:20.140Z,6.80
2023-01-10T14:44:46.794Z,6.80
2023-01-10T14:47:32.835Z,6.80
2023-01-10T14:50:06.595Z,6.80
2023-01-10T14:52:33.536Z,6.70
2023-01-10T14:55:09.322Z,6.70
2023-01-10T14:57:36.113Z,6.70
2023-01-10T15:00:06.281Z,6.70
2023-01-10T15:02:34.191Z,6.70
2023-01-10T15:05:08.412Z,6.60
2023-01-10T15:07:35.992Z,6.60
2023-01-10T15:10:17.768Z,6.60
2023-01-10T15:12:45.082Z,6.50
2023-01-10T15:15:36.969Z,6.50
2023-01-10T15:18:14.264Z,6.50
2023-01-10T15:20:41.132Z,6.50
2023-01-10T15:23:14.504Z,6.50
2023-01-10T15:25:42.186Z,6.50
2023-01-10T15:28:15.564Z,6.50
2023-01-10T15:30:42.516Z,6.50
2023-01-10T15:33:14.403Z,6.50
2023-01-10T15:35:43.511Z,6.50
2023-01-10T15:38:21.998Z,6.40
2023-01-10T15:40:58.245Z,6.40
2023-01-10T15:43:30.062Z,6.40
2023-01-10T15:45:58.479Z,6.40
2023-01-10T15:48:41.588Z,6.40
2023-01-10T15:51:19.933Z,6.40
2023-01-10T15:53:55.630Z,6.40
2023-01-10T15:56:28.849Z,6.40
2023-01-10T15:58:58.862Z,6.30
2023-01-10T16:01:28.533Z,6.30
2023-01-10T16:03:58.427Z,6.30
2023-01-10T16:06:36.444Z,6.20
2023-01-10T16:09:07.113Z,6.20
2023-01-10T16:11:52.451Z,6.10
2023-01-10T16:14:19.250Z,6.10
2023-01-10T16:16:46.261Z,6.10
2023-01-10T16:19:14.677Z,6.10
2023-01-10T16:21:45.339Z,6.10
2023-01-10T16:24:23.226Z,6.00
2023-01-10T16:26:50.535Z,6.00
2023-01-10T16:29:20.333Z,5.90
2023-01-10T16:31:47.246Z,5.90
2023-01-10T16:34:14.190Z,5.90
2023-01-10T16:36:43.076Z,5.90
2023-01-10T16:39:18.194Z,5.90
2023-01-10T16:42:04.640Z,5.90
2023-01-10T16:44:33.102Z,5.80
2023-01-10T16:47:00.718Z,5.80
2023-01-10T16:49:27.951Z,5.80
2023-01-10T17:07:13.602Z,5.80
2023-01-10T17:09:40.403Z,5.80
2023-01-10T17:12:12.258Z,5.80
2023-01-10T17:14:39.213Z,5.80
2023-01-10T17:17:06.064Z,5.80
2023-01-10T17:19:32.885Z,5.80
2023-01-10T17:22:00.433Z,5.80
2023-01-10T17:24:29.605Z,5.70
2023-01-10T17:26:56.471Z,5.80
2023-01-10T17:29:23.784Z,5.80
2023-01-10T17:31:50.838Z,5.70
2023-01-10T17:34:17.778Z,5.70
2023-01-10T17:36:44.524Z,5.70
2023-01-10T17:39:11.605Z,5.70
2023-01-10T17:41:38.620Z,5.70
2023-01-10T17:44:05.465Z,5.70
2023-01-10T17:46:32.853Z,5.70
2023-01-10T17:49:01.229Z,5.70
2023-01-10T17:51:29.038Z,5.70
2023-01-10T17:53:56.046Z,5.70
2023-01-10T17:56:23.038Z,5.70
2023-01-10T17:58:51.627Z,5.70
2023-01-10T18:01:25.480Z,5.70
2023-01-10T18:03:52.982Z,5.70
2023-01-10T18:06:24.255Z,5.70
2023-01-10T18:08:51.793Z,5.70
2023-01-10T18:11:18.607Z,5.70
2023-01-10T18:13:45.479Z,5.70
2023-01-10T18:16:12.222Z,5.70
2023-01-10T18:18:39.147Z,5.70
2023-01-10T18:21:14.929Z,5.70
2023-01-10T18:23:41.735Z,5.70
2023-01-10T18:26:10.540Z,5.70
2023-01-10T18:28:42.061Z,5.70
2023-01-10T18:31:15.845Z,5.70
2023-01-10T18:33:42.924Z,5.70
2023-01-10T18:36:16.497Z,5.70
2023-01-10T18:38:43.442Z,5.70
2023-01-10T18:41:10.245Z,5.70
2023-01-10T18:43:37.165Z,5.70
2023-01-10T18:46:15.672Z,5.70
2023-01-10T18:48:42.563Z,5.70
2023-01-10T18:51:12.308Z,5.70
2023-01-10T18:53:39.280Z,5.60
2023-01-10T18:56:06.468Z,5.60
2023-01-10T18:58:35.416Z,5.60
2023-01-10T19:01:06.446Z,5.60
2023-01-10T19:03:33.643Z,5.60
2023-01-10T19:06:01.610Z,5.60
2023-01-10T19:08:28.573Z,5.60
2023-01-10T19:11:12.427Z,5.70
2023-01-10T19:13:40.180Z,5.70
2023-01-10T19:16:18.196Z,5.60
2023-01-10T19:19:05.481Z,5.60
2023-01-10T19:21:34.038Z,5.60
2023-01-10T19:24:03.334Z,5.60
2023-01-10T19:26:30.222Z,5.60
2023-01-10T19:28:57.383Z,5.60
2023-01-10T19:31:26.709Z,5.60
2023-01-10T19:33:54.005Z,5.60
2023-01-10T19:36:22.608Z,5.60
2023-01-10T19:38:55.119Z,5.60
2023-01-10T19:41:21.998Z,5.60
2023-01-10T19:43:53.638Z,5.60
2023-01-10T19:46:20.466Z,5.70
2023-01-10T19:48:47.271Z,5.70
2023-01-10T19:51:14.159Z,5.70
2023-01-10T19:53:46.065Z,5.70
2023-01-10T19:56:19.601Z,5.70
2023-01-10T19:58:47.705Z,5.70
2023-01-10T20:01:19.985Z,5.70
2023-01-10T20:03:47.826Z,5.70
2023-01-10T20:06:17.362Z,5.70
2023-01-10T20:08:45.244Z,5.70
2023-01-10T20:11:12.717Z,5.70
2023-01-10T20:13:45.040Z,5.70
2023-01-10T20:16:13.181Z,5.70
2023-01-10T20:18:40.020Z,5.70
2023-01-10T20:21:08.373Z,5.70
2023-01-10T20:23:36.701Z,5.70
2023-01-10T20:26:25.921Z,5.70
2023-01-10T20:28:53.257Z,5.70
2023-01-10T20:31:21.967Z,5.80
2023-01-10T20:33:49.289Z,5.80
2023-01-10T20:36:18.137Z,5.80
2023-01-10T20:38:45.218Z,5.80
2023-01-10T20:41:17.078Z,5.80
2023-01-10T20:43:44.645Z,5.80
2023-01-10T20:46:14.004Z,5.80
2023-01-10T20:48:41.873Z,5.80
2023-01-10T20:51:15.915Z,5.80
2023-01-10T20:53:44.116Z,5.80
2023-01-10T20:56:13.242Z,5.80
2023-01-10T20:58:40.256Z,5.80
2023-01-10T21:01:07.390Z,5.70
2023-01-10T21:03:34.535Z,5.70
2023-01-10T21:06:01.429Z,5.70
2023-01-10T21:08:31.690Z,5.70
2023-01-10T21:10:59.022Z,5.60
2023-01-10T21:13:26.319Z,5.60
2023-01-10T21:15:55.205Z,5.60
2023-01-10T21:18:25.400Z,5.60
2023-01-10T21:20:54.649Z,5.50
2023-01-10T21:23:22.845Z,5.50
2023-01-10T21:25:50.299Z,5.50
2023-01-10T21:28:17.570Z,5.50
2023-01-10T21:30:45.862Z,5.50
2023-01-10T21:33:13.367Z,5.40
2023-01-10T21:35:40.242Z,5.50
2023-01-10T21:38:07.007Z,5.40
2023-01-10T21:40:34.191Z,5.40
2023-01-10T21:43:01.100Z,5.40
2023-01-10T21:45:28.530Z,5.40
2023-01-10T21:47:56.397Z,5.40
2023-01-10T21:50:23.223Z,5.40
2023-01-10T21:52:50.046Z,5.40
2023-01-10T21:55:17.090Z,5.40
2023-01-10T21:57:44.017Z,5.40
2023-01-10T22:00:11.414Z,5.40
2023-01-10T22:02:38.481Z,5.40
2023-01-10T22:05:05.739Z,5.30
2023-01-10T22:07:32.459Z,5.30
2023-01-10T22:09:59.259Z,5.30
2023-01-10T22:12:26.056Z,5.30
2023-01-10T22:14:53.157Z,5.30
2023-01-10T22:17:19.989Z,5.30
2023-01-10T22:19:46.730Z,5.30
2023-01-10T22:22:14.233Z,5.30
2023-01-10T22:24:44.720Z,5.30
2023-01-10T22:27:11.552Z,5.30
2023-01-10T22:29:38.592Z,5.30
2023-01-10T22:32:05.354Z,5.30
2023-01-10T22:34:32.644Z,5.30
2023-01-10T22:36:59.401Z,5.30
2023-01-10T22:39:26.234Z,5.30
2023-01-10T22:41:53.603Z,5.30
2023-01-10T22:44:26.264Z,5.30
2023-01-10T22:46:54.944Z,5.30
2023-01-10T22:49:22.473Z,5.30
2023-01-10T22:51:49.646Z,5.30
2023-01-10T22:54:16.390Z,5.30
2023-01-10T22:56:44.171Z,5.30
2023-01-10T22:59:11.507Z,5.40
2023-01-10T23:01:38.420Z,5.30
2023-01-10T23:04:05.295Z,5.30
2023-01-10T23:06:32.122Z,5.40
2023-01-10T23:08:59.335Z,5.40
2023-01-10T23:11:26.123Z,5.40
2023-01-10T23:13:53.017Z,5.40
2023-01-10T23:16:22.403Z,5.40
2023-01-10T23:18:49.497Z,5.40
2023-01-10T23:21:17.134Z,5.40
2023-01-10T23:23:43.913Z,5.30
2023-01-10T23:26:12.388Z,5.30
2023-01-10T23:28:50.569Z,5.40
2023-01-10T23:31:19.745Z,5.40
2023-01-10T23:33:47.186Z,5.40
2023-01-10T23:36:14.269Z,5.40
2023-01-10T23:38:41.228Z,5.40
2023-01-10T23:41:08.228Z,5.40
2023-01-10T23:43:35.213Z,5.40
2023-01-10T23:46:02.321Z,5.40
2023-01-10T23:48:29.688Z,5.40
2023-01-10T23:50:57.112Z,5.40
2023-01-10T23:53:24.053Z,5.40
2023-01-10T23:55:50.862Z,5.40
2023-01-10T23:58:17.762Z,5.40
